Terminal Aerodrome Forecast
Issued by NWS Jackson, MS

Home | Current Version | Previous Version | Text Only | Print | Product List | Glossary On
Versions: 1 2 3 4 5 6 7 8 9 10 11 12 13 14 15 16 17 18 19
000
FTUS44 KJAN 281348 AAA
TAFHBG
TAF AMD
KHBG 281348Z 2814/2912 00000KT 2SM BR OVC002
     FM281500 07003KT 3SM BR BKN008
     FM281600 18004KT P6SM SCT015
     FM281900 17005KT P6SM VCTS BKN040CB
     FM290000 VRB03KT P6SM BKN250
     FM291000 00000KT 1/2SM FG OVC001=

USA.gov is the U.S. government's official web portal to all federal, state and local government web resources and services.